createdAt,value
2018-03-17T00:01:28.458Z,92.51
2018-03-17T00:03:57.900Z,92.52
2018-03-17T00:06:26.224Z,93.15
2018-03-17T00:08:54.544Z,93.43
2018-03-17T00:11:22.928Z,93.36
2018-03-17T00:13:51.256Z,93.31
2018-03-17T00:16:20.482Z,93.68
2018-03-17T00:18:48.896Z,93.83
2018-03-17T00:21:17.253Z,94.04
2018-03-17T00:23:45.576Z,94.09
2018-03-17T00:26:13.954Z,93.87
2018-03-17T00:28:42.288Z,93.47
2018-03-17T00:31:10.617Z,93.04
2018-03-17T00:33:39.021Z,92.96
2018-03-17T00:36:07.409Z,92.97
2018-03-17T00:38:36.488Z,93.08
2018-03-17T00:41:04.829Z,93.03
2018-03-17T00:43:33.150Z,92.84
2018-03-17T00:46:01.488Z,92.63
2018-03-17T00:48:32.739Z,92.52
2018-03-17T00:51:01.464Z,92.50
2018-03-17T00:53:30.801Z,92.08
2018-03-17T00:55:59.112Z,92.45
2018-03-17T00:58:28.095Z,92.59
2018-03-17T01:00:56.436Z,92.77
2018-03-17T01:03:24.761Z,93.03
2018-03-17T01:05:53.172Z,93.03
2018-03-17T01:08:21.484Z,93.05
2018-03-17T01:10:49.824Z,92.71
2018-03-17T01:13:18.532Z,92.46
2018-03-17T01:15:47.603Z,93.17
2018-03-17T01:18:15.951Z,93.74
2018-03-17T01:20:44.463Z,94.05
2018-03-17T01:23:12.788Z,93.86
2018-03-17T01:25:41.117Z,93.45
2018-03-17T01:28:09.556Z,93.14
2018-03-17T01:30:38.163Z,93.58
2018-03-17T01:33:06.798Z,93.87
2018-03-17T01:35:35.773Z,93.47
2018-03-17T01:38:04.100Z,93.18
2018-03-17T01:40:32.416Z,92.89
2018-03-17T01:43:00.757Z,93.04
2018-03-17T01:45:29.696Z,93.42
2018-03-17T01:47:58.136Z,93.53
2018-03-17T01:50:26.460Z,93.40
2018-03-17T01:52:54.781Z,93.39
2018-03-17T01:55:23.138Z,93.28
2018-03-17T01:57:51.448Z,93.06
2018-03-17T02:00:19.764Z,92.89
2018-03-17T02:02:48.159Z,92.87
2018-03-17T02:05:17.681Z,92.99
2018-03-17T02:07:46.016Z,92.92
2018-03-17T02:10:14.384Z,93.12
2018-03-17T02:12:42.714Z,93.80
2018-03-17T02:15:11.068Z,93.89
2018-03-17T02:17:39.435Z,93.67
2018-03-17T02:20:08.948Z,93.40
2018-03-17T02:22:37.268Z,93.41
2018-03-17T02:25:05.620Z,93.44
2018-03-17T02:27:33.933Z,93.39
2018-03-17T02:30:02.265Z,93.20
2018-03-17T02:32:30.625Z,93.29
2018-03-17T02:34:58.948Z,93.51
2018-03-17T02:37:28.243Z,94.46
2018-03-17T02:39:56.741Z,94.78
2018-03-17T02:42:25.510Z,95.08
2018-03-17T02:44:53.860Z,95.29
2018-03-17T02:47:22.220Z,95.46
2018-03-17T02:49:50.557Z,95.46
2018-03-17T02:52:18.933Z,94.78
2018-03-17T02:54:47.271Z,94.78
2018-03-17T02:57:16.384Z,94.89
2018-03-17T02:59:45.133Z,94.72
2018-03-17T03:02:13.461Z,94.73
2018-03-17T03:04:41.800Z,94.01
2018-03-17T03:07:11.257Z,94.10
2018-03-17T03:09:39.584Z,93.86
2018-03-17T03:12:07.915Z,93.60
2018-03-17T03:14:36.417Z,93.71
2018-03-17T03:17:04.736Z,93.92
2018-03-17T03:19:33.084Z,93.78
2018-03-17T03:22:01.639Z,92.79
2018-03-17T03:24:29.953Z,92.35
2018-03-17T03:26:58.019Z,92.52
2018-03-17T03:29:26.752Z,92.11
2018-03-17T03:31:55.096Z,92.12
2018-03-17T03:34:23.432Z,92.32
2018-03-17T03:36:52.080Z,91.94
2018-03-17T03:39:20.723Z,91.56
2018-03-17T03:41:49.104Z,90.18
2018-03-17T03:44:17.437Z,89.72
2018-03-17T03:46:45.758Z,89.49
2018-03-17T03:49:15.100Z,89.72
2018-03-17T03:51:43.440Z,88.58
2018-03-17T03:54:11.797Z,87.51
2018-03-17T03:56:40.203Z,88.00
2018-03-17T03:59:08.589Z,87.86
2018-03-17T04:01:36.923Z,88.22
2018-03-17T04:04:05.260Z,88.03
2018-03-17T04:06:33.758Z,88.42
2018-03-17T04:09:03.556Z,88.73
2018-03-17T04:11:32.651Z,88.46
2018-03-17T04:14:01.741Z,88.38
2018-03-17T04:16:30.165Z,89.01
2018-03-17T04:18:58.533Z,89.29
2018-03-17T04:21:26.876Z,89.06
2018-03-17T04:23:55.218Z,88.92
2018-03-17T04:26:23.533Z,89.29
2018-03-17T04:28:51.933Z,89.30
2018-03-17T04:31:21.088Z,89.36
2018-03-17T04:33:49.495Z,88.82
2018-03-17T04:36:17.821Z,87.45
2018-03-17T04:38:46.240Z,89.18
2018-03-17T04:41:14.551Z,92.05
2018-03-17T04:43:43.404Z,93.60
2018-03-17T04:46:11.759Z,93.84
2018-03-17T04:48:40.090Z,93.36
2018-03-17T04:51:08.432Z,92.53
2018-03-17T04:53:36.880Z,93.31
2018-03-17T04:56:05.238Z,93.01
2018-03-17T04:58:33.569Z,92.97
2018-03-17T05:01:02.072Z,92.36
2018-03-17T05:03:30.401Z,93.15
2018-03-17T05:05:58.732Z,93.58
2018-03-17T05:08:27.125Z,93.49
2018-03-17T05:10:55.473Z,93.06
2018-03-17T05:13:23.792Z,92.75
2018-03-17T05:15:52.163Z,91.65
2018-03-17T05:18:20.480Z,91.12
2018-03-17T05:20:48.804Z,90.63
2018-03-17T05:23:17.209Z,89.80
2018-03-17T05:25:45.527Z,89.21
2018-03-17T05:28:13.848Z,88.83
2018-03-17T05:30:42.218Z,88.78
2018-03-17T05:33:10.541Z,88.76
2018-03-17T05:35:39.181Z,88.97
2018-03-17T05:38:08.323Z,88.50
2018-03-17T05:40:36.660Z,88.61
2018-03-17T05:43:05.561Z,88.83
2018-03-17T05:45:33.883Z,88.46
2018-03-17T05:48:02.202Z,87.83
2018-03-17T05:50:31.320Z,87.37
2018-03-17T05:53:02.031Z,87.67
2018-03-17T05:55:30.372Z,88.08
2018-03-17T05:57:58.696Z,88.19
2018-03-17T06:00:27.087Z,89.16
2018-03-17T06:02:55.970Z,89.70
2018-03-17T06:05:24.304Z,89.60
2018-03-17T06:07:52.664Z,89.09
2018-03-17T06:10:21.005Z,88.90
2018-03-17T06:12:49.338Z,88.58
2018-03-17T06:15:17.698Z,88.72
2018-03-17T06:17:46.064Z,88.01
2018-03-17T06:20:14.660Z,87.67
2018-03-17T06:22:42.976Z,87.96
2018-03-17T06:25:11.307Z,87.82
2018-03-17T06:27:39.652Z,88.09
2018-03-17T06:30:07.978Z,88.00
2018-03-17T06:32:36.320Z,88.04
2018-03-17T06:35:05.404Z,88.19
2018-03-17T06:37:34.504Z,88.24
2018-03-17T06:40:03.588Z,88.15
2018-03-17T06:42:33.234Z,87.73
2018-03-17T06:45:01.549Z,87.37
2018-03-17T06:47:29.865Z,88.17
2018-03-17T06:49:58.342Z,87.79
2018-03-17T06:52:26.653Z,87.93
2018-03-17T06:54:55.016Z,87.67
2018-03-17T06:57:23.340Z,87.15
2018-03-17T06:59:51.682Z,87.10
2018-03-17T07:02:20.372Z,87.10
2018-03-17T07:04:48.697Z,87.04
2018-03-17T07:07:17.034Z,86.38
2018-03-17T07:09:45.405Z,86.62
2018-03-17T07:12:13.718Z,85.77
2018-03-17T07:14:42.040Z,84.88
2018-03-17T07:17:10.409Z,84.76
2018-03-17T07:19:38.738Z,85.10
2018-03-17T07:22:07.610Z,84.79
2018-03-17T07:24:36.009Z,85.07
2018-03-17T07:27:04.333Z,84.57
2018-03-17T07:29:32.721Z,84.28
2018-03-17T07:32:01.138Z,83.94
2018-03-17T07:34:29.449Z,84.04
2018-03-17T07:36:57.775Z,84.15
2018-03-17T07:39:26.281Z,84.54
2018-03-17T07:41:54.615Z,84.99
2018-03-17T07:44:22.936Z,84.97
2018-03-17T07:46:51.324Z,83.93
2018-03-17T07:49:19.640Z,83.41
2018-03-17T07:51:48.732Z,83.75
2018-03-17T07:54:18.479Z,83.42
2018-03-17T07:56:46.806Z,83.50
2018-03-17T07:59:15.133Z,82.81
2018-03-17T08:01:43.476Z,82.52
2018-03-17T08:04:12.557Z,82.60
2018-03-17T08:06:41.681Z,82.32
2018-03-17T08:09:10.008Z,83.22
2018-03-17T08:11:38.571Z,83.45
2018-03-17T08:14:06.892Z,83.07
2018-03-17T08:16:35.972Z,83.09
2018-03-17T08:19:04.323Z,82.55
2018-03-17T08:21:32.651Z,81.89
2018-03-17T08:24:01.015Z,81.18
2018-03-17T08:26:29.356Z,80.67
2018-03-17T08:28:57.724Z,80.86
2018-03-17T08:31:26.097Z,80.34
2018-03-17T08:33:54.414Z,80.73
2018-03-17T08:36:23.241Z,80.27
2018-03-17T08:38:51.640Z,79.46
2018-03-17T08:41:19.965Z,78.49
2018-03-17T08:43:50.508Z,77.81
2018-03-17T08:46:19.652Z,76.93
2018-03-17T08:48:48.705Z,78.94
2018-03-17T08:51:17.782Z,78.00
2018-03-17T08:53:46.269Z,77.79
2018-03-17T08:56:14.649Z,77.98
2018-03-17T08:58:43.389Z,77.71
2018-03-17T09:01:11.734Z,77.03
2018-03-17T09:03:40.133Z,76.65
2018-03-17T09:06:08.453Z,77.29
2018-03-17T09:08:36.818Z,76.86
2018-03-17T09:11:05.160Z,75.78
2018-03-17T09:13:33.498Z,76.05
2018-03-17T09:16:01.876Z,78.35
2018-03-17T09:18:30.211Z,77.34
2018-03-17T09:20:58.533Z,77.33
2018-03-17T09:23:26.873Z,77.04
2018-03-17T09:25:55.189Z,77.25
2018-03-17T09:28:23.550Z,78.74
2018-03-17T09:30:51.975Z,78.66
2018-03-17T09:33:20.282Z,77.45
2018-03-17T09:35:49.396Z,77.24
2018-03-17T09:38:18.133Z,75.97
2018-03-17T09:40:47.426Z,76.41
2018-03-17T09:43:15.820Z,76.07
2018-03-17T09:45:44.548Z,75.49
2018-03-17T09:48:13.702Z,75.10
2018-03-17T09:50:42.828Z,74.05
2018-03-17T09:53:11.145Z,75.33
2018-03-17T09:55:41.173Z,74.50
2018-03-17T09:58:09.580Z,74.57
2018-03-17T10:00:37.897Z,73.50
2018-03-17T10:03:06.212Z,73.60
2018-03-17T10:05:35.677Z,74.75
2018-03-17T10:08:04.008Z,74.97
2018-03-17T10:10:33.516Z,75.07
2018-03-17T10:13:01.935Z,76.32
2018-03-17T10:15:30.312Z,78.19
2018-03-17T10:17:58.656Z,77.89
2018-03-17T10:20:27.657Z,76.79
2018-03-17T10:22:56.271Z,76.40
2018-03-17T10:25:24.611Z,75.73
2018-03-17T10:27:53.012Z,75.25
2018-03-17T10:30:22.092Z,74.48
2018-03-17T10:32:50.413Z,73.60
2018-03-17T10:35:18.994Z,73.57
2018-03-17T10:37:47.388Z,72.88
2018-03-17T10:40:15.692Z,73.43
2018-03-17T10:42:45.728Z,74.45
2018-03-17T10:45:14.887Z,72.92
2018-03-17T10:47:44.155Z,73.18
2018-03-17T10:50:13.053Z,72.51
2018-03-17T10:52:41.365Z,73.83
2018-03-17T10:55:09.760Z,74.40
2018-03-17T10:57:38.027Z,73.93
2018-03-17T11:00:06.258Z,73.90
2018-03-17T11:02:39.966Z,75.39
2018-03-17T11:05:08.593Z,76.84
2018-03-17T11:07:36.817Z,76.25
2018-03-17T11:10:05.145Z,76.08
2018-03-17T11:12:33.461Z,75.38
2018-03-17T11:15:02.810Z,75.10
2018-03-17T11:17:32.596Z,74.24
2018-03-17T11:20:00.925Z,75.17
2018-03-17T11:22:29.801Z,74.97
2018-03-17T11:25:03.882Z,75.27
2018-03-17T11:27:32.223Z,75.17
2018-03-17T11:30:06.609Z,75.17
2018-03-17T11:32:40.548Z,76.61
2018-03-17T11:35:09.492Z,75.71
2018-03-17T11:37:38.465Z,76.36
2018-03-17T11:40:07.680Z,76.43
2018-03-17T11:42:36.727Z,75.87
2018-03-17T11:45:05.100Z,75.40
2018-03-17T11:47:33.544Z,74.84
2018-03-17T11:50:01.869Z,75.45
2018-03-17T11:52:30.408Z,74.66
2018-03-17T11:54:58.725Z,74.72
2018-03-17T11:57:27.809Z,76.02
2018-03-17T11:59:56.166Z,76.06
2018-03-17T12:02:24.905Z,76.23
2018-03-17T12:04:53.218Z,76.47
2018-03-17T12:07:22.408Z,76.53
2018-03-17T12:09:50.722Z,76.97
2018-03-17T12:12:19.809Z,76.13
2018-03-17T12:14:48.933Z,76.02
2018-03-17T12:17:17.261Z,74.47
2018-03-17T12:19:47.360Z,73.41
2018-03-17T12:22:15.726Z,74.09
2018-03-17T12:24:44.206Z,74.49
2018-03-17T12:27:12.513Z,73.53
2018-03-17T12:29:41.680Z,73.54
2018-03-17T12:32:10.533Z,73.77
2018-03-17T12:34:39.439Z,73.71
2018-03-17T12:37:07.777Z,73.64
2018-03-17T12:39:36.272Z,74.10
2018-03-17T12:42:04.744Z,73.90
2018-03-17T12:44:33.453Z,73.95
2018-03-17T12:47:02.324Z,73.57
2018-03-17T12:49:31.332Z,74.39
2018-03-17T12:52:00.412Z,73.69
2018-03-17T12:54:29.402Z,74.03
2018-03-17T12:56:57.717Z,74.92
2018-03-17T12:59:26.043Z,74.07
2018-03-17T13:01:55.121Z,73.79
2018-03-17T13:04:23.437Z,73.94
2018-03-17T13:06:51.876Z,74.25
2018-03-17T13:09:20.705Z,73.75
2018-03-17T13:11:49.021Z,73.26
2018-03-17T13:14:17.393Z,74.39
2018-03-17T13:16:45.701Z,74.66
2018-03-17T13:19:31.866Z,75.13
2018-03-17T13:22:00.827Z,74.95
2018-03-17T13:24:29.152Z,75.24
2018-03-17T13:27:15.088Z,74.62
2018-03-17T13:29:43.404Z,74.62
2018-03-17T13:32:29.324Z,74.57
2018-03-17T13:34:57.653Z,75.00
2018-03-17T13:37:38.103Z,75.27
2018-03-17T13:53:54.132Z,75.32
2018-03-17T13:56:22.473Z,75.12
2018-03-17T13:58:50.802Z,74.55
2018-03-17T14:01:19.180Z,74.37
2018-03-17T14:03:47.493Z,74.32
2018-03-17T14:06:15.802Z,74.25
2018-03-17T14:08:44.212Z,74.68
2018-03-17T14:11:12.516Z,74.48
2018-03-17T14:13:40.820Z,74.20
2018-03-17T14:16:09.196Z,74.70
2018-03-17T14:18:37.516Z,74.41
2018-03-17T14:21:05.834Z,74.47
2018-03-17T14:23:34.588Z,74.33
2018-03-17T14:26:03.034Z,74.73
2018-03-17T14:28:31.970Z,74.97
2018-03-17T14:31:00.639Z,75.04
2018-03-17T14:33:28.945Z,75.67
2018-03-17T14:35:58.800Z,75.81
2018-03-17T14:38:27.568Z,76.15
2018-03-17T14:40:56.855Z,76.12
2018-03-17T14:43:29.021Z,75.79
2018-03-17T14:45:58.004Z,75.90
2018-03-17T14:48:26.312Z,76.33
2018-03-17T14:50:54.700Z,76.06
2018-03-17T14:53:23.065Z,76.37
2018-03-17T14:55:51.489Z,75.90
2018-03-17T14:58:20.770Z,75.95
2018-03-17T15:00:49.900Z,75.66
2018-03-17T15:03:18.405Z,75.29
2018-03-17T15:05:47.371Z,75.42
2018-03-17T15:08:15.689Z,75.28
2018-03-17T15:10:44.008Z,74.85
2018-03-17T15:13:12.392Z,74.80
2018-03-17T15:15:40.708Z,75.35
2018-03-17T15:18:09.016Z,75.48
2018-03-17T15:20:38.383Z,74.93
2018-03-17T15:23:07.209Z,74.95
2018-03-17T15:25:35.585Z,74.64
2018-03-17T15:28:03.960Z,75.24
2018-03-17T15:30:32.268Z,75.98
2018-03-17T15:33:00.640Z,76.03
2018-03-17T15:35:30.429Z,76.40
2018-03-17T15:37:58.679Z,76.47
2018-03-17T15:40:26.997Z,76.70
2018-03-17T15:42:55.428Z,76.83
2018-03-17T15:45:24.389Z,76.29
2018-03-17T15:47:52.709Z,76.18
2018-03-17T15:50:21.501Z,76.68
2018-03-17T15:52:50.042Z,76.71
2018-03-17T15:55:18.912Z,76.67
2018-03-17T15:57:47.240Z,76.46
2018-03-17T16:00:16.403Z,76.21
2018-03-17T16:02:44.082Z,76.06
2018-03-17T16:05:12.701Z,75.34
2018-03-17T16:07:41.141Z,75.08
2018-03-17T16:10:10.143Z,75.43
2018-03-17T16:12:39.224Z,75.93
2018-03-17T16:15:08.533Z,75.74
2018-03-17T16:17:37.581Z,76.14
2018-03-17T16:20:06.678Z,75.97
2018-03-17T16:22:35.556Z,76.51
2018-03-17T16:25:03.883Z,76.27
2018-03-17T16:27:32.196Z,75.35
2018-03-17T16:30:00.566Z,75.54
2018-03-17T16:32:28.973Z,75.56
2018-03-17T16:34:58.056Z,76.10
2018-03-17T16:37:26.805Z,76.08
2018-03-17T16:39:55.132Z,75.95
2018-03-17T16:42:23.444Z,75.61
2018-03-17T16:44:51.804Z,75.37
2018-03-17T16:47:23.109Z,74.69
2018-03-17T16:49:51.469Z,73.37
2018-03-17T16:52:20.109Z,73.58
2018-03-17T16:54:48.429Z,73.77
2018-03-17T16:57:16.798Z,74.36
2018-03-17T16:59:45.112Z,74.09
2018-03-17T17:02:13.434Z,73.90
2018-03-17T17:04:42.574Z,74.67
2018-03-17T17:07:10.891Z,75.05
2018-03-17T17:09:39.229Z,75.52
2018-03-17T17:12:07.618Z,74.71
2018-03-17T17:14:35.943Z,74.83
2018-03-17T17:17:04.268Z,74.08
2018-03-17T17:19:32.992Z,73.61
2018-03-17T17:22:02.084Z,73.87
2018-03-17T17:24:31.354Z,73.57
2018-03-17T17:27:00.080Z,73.34
2018-03-17T17:29:29.064Z,73.18
2018-03-17T17:31:57.379Z,73.13
2018-03-17T17:34:26.144Z,73.31
2018-03-17T17:36:55.530Z,73.28
2018-03-17T17:39:23.840Z,73.10
2018-03-17T17:41:52.168Z,73.23
2018-03-17T17:44:20.537Z,72.94
2018-03-17T17:46:49.329Z,72.52
2018-03-17T17:49:17.649Z,72.50
2018-03-17T17:51:45.992Z,72.76
2018-03-17T17:54:14.340Z,72.96
2018-03-17T17:56:42.676Z,72.91
2018-03-17T17:59:11.063Z,72.96
2018-03-17T18:01:39.478Z,73.21
2018-03-17T18:04:08.532Z,73.07
2018-03-17T18:06:38.256Z,73.18
2018-03-17T18:09:06.588Z,73.11
2018-03-17T18:11:34.931Z,73.04
2018-03-17T18:14:03.569Z,73.08
2018-03-17T18:16:32.061Z,73.08
2018-03-17T18:19:00.366Z,73.08
2018-03-17T18:21:29.425Z,73.51
2018-03-17T18:23:57.769Z,73.41
2018-03-17T18:26:26.797Z,73.15
2018-03-17T18:28:55.750Z,73.18
2018-03-17T18:31:24.035Z,73.22
2018-03-17T18:33:52.564Z,73.45
2018-03-17T18:36:20.936Z,73.26
2018-03-17T18:38:49.284Z,73.26
2018-03-17T18:41:17.957Z,73.58
2018-03-17T18:43:46.268Z,73.58
2018-03-17T18:46:14.637Z,73.58
2018-03-17T18:48:42.997Z,73.84
2018-03-17T18:51:11.317Z,73.85
2018-03-17T18:53:40.760Z,74.20
2018-03-17T18:56:09.121Z,74.31
2018-03-17T18:58:37.438Z,74.54
2018-03-17T19:01:05.805Z,75.11
2018-03-17T19:03:34.617Z,74.88
2018-03-17T19:06:03.703Z,74.74
2018-03-17T19:08:32.056Z,74.84
2018-03-17T19:11:00.405Z,75.03
2018-03-17T19:13:28.765Z,75.06
2018-03-17T19:15:57.156Z,74.61
2018-03-17T19:18:25.701Z,74.77
2018-03-17T19:20:54.621Z,74.85
2018-03-17T19:23:23.048Z,74.73
2018-03-17T19:25:51.375Z,74.72
2018-03-17T19:28:20.549Z,75.12
2018-03-17T19:30:50.299Z,75.19
2018-03-17T19:33:18.626Z,75.28
2018-03-17T19:35:47.548Z,75.13
2018-03-17T19:38:16.175Z,75.19
2018-03-17T19:40:45.820Z,75.44
2018-03-17T19:43:14.140Z,75.50
2018-03-17T19:45:42.520Z,75.74
2018-03-17T19:48:11.291Z,75.81
2018-03-17T19:50:40.063Z,75.81
2018-03-17T19:53:10.353Z,75.65
2018-03-17T19:55:38.863Z,75.54
2018-03-17T19:58:07.648Z,75.85
2018-03-17T20:00:36.197Z,76.79
2018-03-17T20:03:05.208Z,76.83
2018-03-17T20:05:34.740Z,76.97
2018-03-17T20:08:04.030Z,76.85
2018-03-17T20:10:32.456Z,76.87
2018-03-17T20:13:00.786Z,76.97
2018-03-17T20:15:29.060Z,76.95
2018-03-17T20:17:57.419Z,77.07
2018-03-17T20:20:28.930Z,77.01
2018-03-17T20:22:57.347Z,77.78
2018-03-17T20:25:25.957Z,77.66
2018-03-17T20:27:54.350Z,77.48
2018-03-17T20:30:22.708Z,77.46
2018-03-17T20:32:51.041Z,77.29
2018-03-17T20:35:19.401Z,77.18
2018-03-17T20:37:48.472Z,77.16
2018-03-17T20:40:17.396Z,77.57
2018-03-17T20:42:47.340Z,78.28
2018-03-17T20:45:16.664Z,78.47
2018-03-17T20:47:45.012Z,78.98
2018-03-17T20:50:13.452Z,79.26
2018-03-17T20:52:42.803Z,79.68
2018-03-17T20:55:12.056Z,81.17
2018-03-17T20:57:40.484Z,81.11
2018-03-17T21:00:09.593Z,81.14
2018-03-17T21:02:38.537Z,82.00
2018-03-17T21:05:06.755Z,82.63
2018-03-17T21:07:35.277Z,83.18
2018-03-17T21:10:02.902Z,83.76
2018-03-17T21:12:31.812Z,84.11
2018-03-17T21:15:00.149Z,84.71
2018-03-17T21:17:28.592Z,84.88
2018-03-17T21:19:56.881Z,85.56
2018-03-17T21:22:25.228Z,85.82
2018-03-17T21:24:53.833Z,85.87
2018-03-17T21:27:22.164Z,86.34
2018-03-17T21:29:50.527Z,86.87
2018-03-17T21:32:18.857Z,87.97
2018-03-17T21:34:47.185Z,89.09
2018-03-17T21:37:16.858Z,89.36
2018-03-17T21:39:45.048Z,89.54
2018-03-17T21:42:14.121Z,89.38
2018-03-17T21:44:43.349Z,90.13
2018-03-17T21:47:12.453Z,90.44
2018-03-17T21:49:43.203Z,90.67
2018-03-17T21:52:12.965Z,90.12
2018-03-17T21:54:41.360Z,89.78
2018-03-17T21:57:09.653Z,89.96
2018-03-17T21:59:37.988Z,90.70
2018-03-17T22:02:08.523Z,90.01
2018-03-17T22:04:36.808Z,89.58
2018-03-17T22:07:06.004Z,89.97
2018-03-17T22:09:34.344Z,90.37
2018-03-17T22:12:02.867Z,90.76
2018-03-17T22:14:32.613Z,91.12
2018-03-17T22:17:02.307Z,90.67
2018-03-17T22:19:31.225Z,90.67
2018-03-17T22:22:00.584Z,90.78
2018-03-17T22:24:28.909Z,91.62
2018-03-17T22:27:00.449Z,92.26
2018-03-17T22:29:29.312Z,92.75
2018-03-17T22:31:58.508Z,92.58
2018-03-17T22:34:26.821Z,92.50
2018-03-17T22:36:55.373Z,92.84
2018-03-17T22:39:24.244Z,93.36
2018-03-17T22:41:52.569Z,93.44
2018-03-17T22:44:20.974Z,93.39
2018-03-17T22:46:49.657Z,92.92
2018-03-17T22:49:18.090Z,93.03
2018-03-17T22:51:46.412Z,93.23
2018-03-17T22:54:15.423Z,93.11
2018-03-17T22:56:44.643Z,93.66
2018-03-17T22:59:12.972Z,93.33
2018-03-17T23:01:41.789Z,93.64
2018-03-17T23:04:11.101Z,93.58
2018-03-17T23:06:39.537Z,93.93
2018-03-17T23:09:07.860Z,93.76
2018-03-17T23:11:36.771Z,93.81
2018-03-17T23:14:05.095Z,93.73
2018-03-17T23:16:33.490Z,93.62
2018-03-17T23:19:01.837Z,93.42
2018-03-17T23:21:30.181Z,93.30
2018-03-17T23:23:59.296Z,93.45
2018-03-17T23:26:27.618Z,93.59
2018-03-17T23:28:55.999Z,93.46
2018-03-17T23:31:24.813Z,93.45
2018-03-17T23:33:53.448Z,93.82
2018-03-17T23:36:22.029Z,93.73
2018-03-17T23:38:50.229Z,93.91
2018-03-17T23:41:18.554Z,93.75
2018-03-17T23:43:46.909Z,93.96
2018-03-17T23:46:16.057Z,93.96
2018-03-17T23:48:44.418Z,93.79
2018-03-17T23:51:12.759Z,94.15
2018-03-17T23:53:41.124Z,94.40
2018-03-17T23:56:09.480Z,94.29
2018-03-17T23:58:38.020Z,94.21
